Time;durP1;ratioP1;P1;durP2;ratioP2;P2;SDS_P1;SDS_P2;PMS_P1;PMS_P2;Temp;Humidity;BMP_temperature;BMP_pressure;BME280_temperature;BME280_humidity;BME280_pressure;Samples;Min_cycle;Max_cycle;Signal;HPM_P1;HPM_P2
2022/06/09 00:02:00;;;;;;;5.53;4.90;;;;;;;;;;4973919;28;20199;-56
2022/06/09 00:04:28;;;;;;;5.30;4.90;;;;;;;;;;4973531;28;20261;-56
2022/06/09 00:06:57;;;;;;;5.70;5.10;;;;;;;;;;4973145;28;20283;-56
2022/06/09 00:09:26;;;;;;;6.23;5.63;;;;;;;;;;4973647;28;20214;-55
2022/06/09 00:11:52;;;;;;;6.40;5.63;;;;;;;;;;4973486;28;20230;-56
2022/06/09 00:14:20;;;;;;;6.40;5.80;;;;;;;;;;4973505;28;20564;-56
2022/06/09 00:16:47;;;;;;;6.23;5.73;;;;;;;;;;4973422;28;20258;-56
2022/06/09 00:19:13;;;;;;;7.17;6.47;;;;;;;;;;4973314;28;20206;-56
2022/06/09 00:21:39;;;;;;;7.40;6.70;;;;;;;;;;4973008;28;20566;-57
2022/06/09 00:24:06;;;;;;;7.47;6.30;;;;;;;;;;4973403;28;20199;-56
2022/06/09 00:26:32;;;;;;;8.43;7.40;;;;;;;;;;4973016;28;20285;-56
2022/06/09 00:28:58;;;;;;;8.97;7.53;;;;;;;;;;4973093;28;20238;-55
2022/06/09 00:31:26;;;;;;;8.23;7.43;;;;;;;;;;4973157;28;20290;-55
2022/06/09 00:33:52;;;;;;;7.30;6.60;;;;;;;;;;4971258;28;20218;-55
2022/06/09 00:36:18;;;;;;;7.83;7.17;;;;;;;;;;4973394;28;20207;-55
2022/06/09 00:38:44;;;;;;;9.00;7.20;;;;;;;;;;4972875;28;20669;-55
2022/06/09 00:41:10;;;;;;;7.60;6.90;;;;;;;;;;4973307;28;20209;-55
2022/06/09 00:43:36;;;;;;;7.43;6.73;;;;;;;;;;4972788;28;20254;-55
2022/06/09 00:46:06;;;;;;;8.47;7.67;;;;;;;;;;4973135;28;20210;-55
2022/06/09 00:48:37;;;;;;;9.07;8.10;;;;;;;;;;4972842;28;20207;-55
2022/06/09 00:51:05;;;;;;;9.13;8.23;;;;;;;;;;4973141;28;20258;-54
2022/06/09 00:53:32;;;;;;;8.77;7.97;;;;;;;;;;4972962;28;20277;-55
2022/06/09 00:55:59;;;;;;;9.27;8.37;;;;;;;;;;4972856;28;20194;-55
2022/06/09 00:58:27;;;;;;;8.20;7.43;;;;;;;;;;4972354;28;20207;-55
2022/06/09 01:00:55;;;;;;;11.10;8.20;;;;;;;;;;4972692;28;20205;-55
2022/06/09 01:03:23;;;;;;;9.60;7.73;;;;;;;;;;4972814;28;20206;-55
2022/06/09 01:05:51;;;;;;;9.10;8.00;;;;;;;;;;4972762;28;20198;-55
2022/06/09 01:08:17;;;;;;;10.27;9.27;;;;;;;;;;4972843;28;20214;-55
2022/06/09 01:10:43;;;;;;;11.47;10.00;;;;;;;;;;4972499;28;20230;-56
2022/06/09 01:13:09;;;;;;;9.93;8.70;;;;;;;;;;4972954;28;20202;-55
2022/06/09 01:15:39;;;;;;;11.73;10.73;;;;;;;;;;4972770;28;20209;-55
2022/06/09 01:18:21;;;;;;;15.37;11.57;;;;;;;;;;4972729;28;20202;-55
2022/06/09 01:20:48;;;;;;;12.40;11.20;;;;;;;;;;4972945;28;20557;-55
2022/06/09 01:23:34;;;;;;;14.43;12.93;;;;;;;;;;4972752;28;20207;-55
2022/06/09 01:26:19;;;;;;;17.40;12.80;;;;;;;;;;4972569;28;20273;-55
2022/06/09 01:29:03;;;;;;;13.57;12.27;;;;;;;;;;4972270;28;20227;-54
2022/06/09 01:31:36;;;;;;;14.47;12.87;;;;;;;;;;4972589;28;20222;-55
2022/06/09 01:34:06;;;;;;;17.63;13.63;;;;;;;;;;4972647;28;20214;-55
2022/06/09 01:36:33;;;;;;;16.93;12.73;;;;;;;;;;4972560;28;20209;-55
2022/06/09 01:39:05;;;;;;;15.80;11.97;;;;;;;;;;4972347;28;20191;-55
2022/06/09 01:41:32;;;;;;;14.03;12.63;;;;;;;;;;4972562;28;20223;-55
2022/06/09 01:43:58;;;;;;;16.60;12.97;;;;;;;;;;4972444;28;20212;-55
2022/06/09 01:46:26;;;;;;;15.63;14.10;;;;;;;;;;4972377;28;20792;-54
2022/06/09 01:48:56;;;;;;;16.30;14.60;;;;;;;;;;4972604;28;20587;-55
2022/06/09 01:51:23;;;;;;;16.70;14.80;;;;;;;;;;4972306;28;20297;-54
2022/06/09 01:53:51;;;;;;;20.90;14.80;;;;;;;;;;4972230;28;20206;-54
2022/06/09 01:56:19;;;;;;;17.43;14.97;;;;;;;;;;4974897;28;20558;-54
2022/06/09 01:58:47;;;;;;;19.57;15.80;;;;;;;;;;4976292;28;20203;-54
2022/06/09 02:01:14;;;;;;;20.97;16.33;;;;;;;;;;4976090;28;20199;-54
2022/06/09 02:03:44;;;;;;;18.50;15.03;;;;;;;;;;4975843;28;20203;-54
2022/06/09 02:06:11;;;;;;;20.00;16.43;;;;;;;;;;4976157;28;20249;-54
2022/06/09 02:08:38;;;;;;;21.20;17.93;;;;;;;;;;4975925;28;20243;-54
2022/06/09 02:11:07;;;;;;;18.80;15.80;;;;;;;;;;4975666;28;20647;-54
2022/06/09 02:13:35;;;;;;;18.00;16.20;;;;;;;;;;4975829;28;20757;-54
2022/06/09 02:16:03;;;;;;;19.17;16.33;;;;;;;;;;4976011;28;20207;-54
2022/06/09 02:18:30;;;;;;;18.03;16.07;;;;;;;;;;4975602;28;20206;-55
2022/06/09 02:20:57;;;;;;;16.53;14.83;;;;;;;;;;4975619;28;20198;-55
2022/06/09 02:23:25;;;;;;;19.57;16.70;;;;;;;;;;4975725;28;20245;-55
2022/06/09 02:25:51;;;;;;;19.10;17.07;;;;;;;;;;4975363;28;20605;-54
2022/06/09 02:28:17;;;;;;;19.30;16.30;;;;;;;;;;4975562;28;20331;-55
2022/06/09 02:30:43;;;;;;;23.40;19.07;;;;;;;;;;4975520;28;20310;-54
2022/06/09 02:33:09;;;;;;;21.00;18.07;;;;;;;;;;4975542;28;20267;-54
2022/06/09 02:35:35;;;;;;;23.77;19.83;;;;;;;;;;4975512;28;20577;-55
2022/06/09 02:38:01;;;;;;;26.43;20.30;;;;;;;;;;4975365;28;20563;-55
2022/06/09 02:40:29;;;;;;;24.57;21.93;;;;;;;;;;4975416;28;20273;-55
2022/06/09 02:42:55;;;;;;;23.73;20.87;;;;;;;;;;4975549;28;20203;-55
2022/06/09 02:45:21;;;;;;;24.03;20.90;;;;;;;;;;4975211;28;20205;-55
2022/06/09 02:47:48;;;;;;;27.33;22.90;;;;;;;;;;4975235;28;20241;-54
2022/06/09 02:50:14;;;;;;;29.67;24.57;;;;;;;;;;4974946;28;20226;-54
2022/06/09 02:52:41;;;;;;;29.03;24.90;;;;;;;;;;4974726;28;20306;-55
2022/06/09 02:55:08;;;;;;;29.23;24.20;;;;;;;;;;4975221;28;20233;-55
2022/06/09 02:57:35;;;;;;;27.83;24.87;;;;;;;;;;4974945;28;20203;-55
2022/06/09 03:00:01;;;;;;;33.50;26.20;;;;;;;;;;4974748;28;20203;-55
2022/06/09 03:02:27;;;;;;;35.10;28.40;;;;;;;;;;4975139;28;20226;-54
2022/06/09 03:04:53;;;;;;;30.80;26.33;;;;;;;;;;4974805;28;20226;-54
2022/06/09 03:07:19;;;;;;;33.30;27.57;;;;;;;;;;4974810;28;20203;-55
2022/06/09 03:09:45;;;;;;;30.33;27.07;;;;;;;;;;4974646;28;20549;-55
2022/06/09 03:12:11;;;;;;;33.90;28.77;;;;;;;;;;4974376;28;20346;-55
2022/06/09 03:14:38;;;;;;;31.00;27.70;;;;;;;;;;4974712;28;20698;-55
2022/06/09 03:17:06;;;;;;;32.37;29.03;;;;;;;;;;4974537;28;20199;-55
2022/06/09 03:19:32;;;;;;;38.03;30.47;;;;;;;;;;4974873;28;20223;-55
2022/06/09 03:21:58;;;;;;;33.70;29.93;;;;;;;;;;4974467;28;20616;-55
2022/06/09 03:24:24;;;;;;;34.87;29.17;;;;;;;;;;4974398;28;20219;-55
2022/06/09 03:26:50;;;;;;;34.33;30.67;;;;;;;;;;4974285;28;20255;-55
2022/06/09 03:29:17;;;;;;;36.77;30.20;;;;;;;;;;4974311;28;20263;-55
2022/06/09 03:31:44;;;;;;;37.20;32.20;;;;;;;;;;4974379;28;20242;-55
2022/06/09 03:34:10;;;;;;;33.93;30.33;;;;;;;;;;4974288;28;20211;-55
2022/06/09 03:36:36;;;;;;;33.87;30.27;;;;;;;;;;4974257;28;20209;-55
2022/06/09 03:39:02;;;;;;;36.10;30.33;;;;;;;;;;4974284;28;20203;-55
2022/06/09 03:41:28;;;;;;;34.73;29.77;;;;;;;;;;4974015;28;20689;-56
2022/06/09 03:43:54;;;;;;;36.23;31.33;;;;;;;;;;4974204;28;20201;-55
2022/06/09 03:46:20;;;;;;;42.50;32.17;;;;;;;;;;4974080;28;20682;-55
2022/06/09 03:48:47;;;;;;;36.50;30.57;;;;;;;;;;4973936;28;20238;-55
2022/06/09 03:51:13;;;;;;;34.13;30.43;;;;;;;;;;4972768;28;20558;-55
2022/06/09 03:53:40;;;;;;;35.93;31.97;;;;;;;;;;4973906;28;20240;-55
2022/06/09 03:56:07;;;;;;;31.27;27.87;;;;;;;;;;4974189;28;20211;-55
2022/06/09 03:58:33;;;;;;;34.90;31.00;;;;;;;;;;4973993;28;20618;-56
2022/06/09 04:00:58;;;;;;;34.80;31.13;;;;;;;;;;4973683;28;20306;-55
2022/06/09 04:03:24;;;;;;;36.00;31.60;;;;;;;;;;4973934;28;20217;-55
2022/06/09 04:05:52;;;;;;;34.47;29.40;;;;;;;;;;4973522;28;20623;-55
2022/06/09 04:08:18;;;;;;;33.03;29.73;;;;;;;;;;4973640;28;20211;-55
2022/06/09 04:10:44;;;;;;;32.00;28.70;;;;;;;;;;4971752;28;20728;-55
2022/06/09 04:13:10;;;;;;;34.13;29.47;;;;;;;;;;4973495;28;20199;-55
2022/06/09 04:15:37;;;;;;;31.97;28.03;;;;;;;;;;4973829;28;20199;-55
2022/06/09 04:18:04;;;;;;;30.47;27.30;;;;;;;;;;4972833;28;20229;-55
2022/06/09 04:20:30;;;;;;;34.03;29.63;;;;;;;;;;4973385;28;20570;-55
2022/06/09 04:22:58;;;;;;;30.60;26.67;;;;;;;;;;4973364;28;20207;-56
2022/06/09 04:25:24;;;;;;;31.57;28.27;;;;;;;;;;4973361;28;20250;-55
2022/06/09 04:27:50;;;;;;;31.93;27.90;;;;;;;;;;4973405;28;20689;-55
2022/06/09 04:30:16;;;;;;;30.57;26.33;;;;;;;;;;4972981;28;20237;-55
2022/06/09 04:32:42;;;;;;;31.40;27.97;;;;;;;;;;4973172;28;20206;-55
2022/06/09 04:35:09;;;;;;;29.17;26.13;;;;;;;;;;4973338;28;20258;-55
2022/06/09 04:40:21;;;;;;;32.27;26.70;;;;;;;;;;4973228;28;20628;-55
2022/06/09 04:42:47;;;;;;;27.27;24.47;;;;;;;;;;4973112;28;20229;-55
2022/06/09 04:45:14;;;;;;;29.87;25.73;;;;;;;;;;4973044;28;20621;-55
2022/06/09 04:47:40;;;;;;;27.70;23.93;;;;;;;;;;4973068;28;20680;-55
2022/06/09 04:50:07;;;;;;;26.47;23.17;;;;;;;;;;4972858;28;20785;-55
2022/06/09 04:52:34;;;;;;;26.17;23.37;;;;;;;;;;4972636;28;20213;-56
2022/06/09 04:55:00;;;;;;;26.97;23.57;;;;;;;;;;4972941;28;20210;-55
2022/06/09 04:57:27;;;;;;;26.00;21.80;;;;;;;;;;4972601;28;20249;-55
2022/06/09 04:59:53;;;;;;;25.63;21.30;;;;;;;;;;4972647;28;20210;-55
2022/06/09 05:02:19;;;;;;;27.30;22.57;;;;;;;;;;4972805;28;20202;-55
2022/06/09 05:04:45;;;;;;;25.50;21.30;;;;;;;;;;4972569;28;20570;-55
2022/06/09 05:07:11;;;;;;;23.63;20.40;;;;;;;;;;4972597;28;20657;-55
2022/06/09 05:09:37;;;;;;;20.73;18.67;;;;;;;;;;4972359;28;20209;-55
2022/06/09 05:12:04;;;;;;;23.17;18.53;;;;;;;;;;4972266;28;20289;-55
2022/06/09 05:14:31;;;;;;;26.07;18.43;;;;;;;;;;4972263;28;20282;-55
2022/06/09 05:16:57;;;;;;;24.47;18.37;;;;;;;;;;4972352;28;20199;-55
2022/06/09 05:19:23;;;;;;;20.47;16.37;;;;;;;;;;4972113;28;20278;-55
2022/06/09 05:21:49;;;;;;;22.87;17.17;;;;;;;;;;4972429;28;20190;-56
2022/06/09 05:24:15;;;;;;;22.07;16.20;;;;;;;;;;4972471;28;20261;-55
2022/06/09 05:26:41;;;;;;;19.30;15.77;;;;;;;;;;4972612;28;20214;-55
2022/06/09 05:29:07;;;;;;;17.63;15.43;;;;;;;;;;4972951;28;20243;-55
2022/06/09 05:31:35;;;;;;;16.37;14.53;;;;;;;;;;4976511;28;20638;-55
2022/06/09 05:34:01;;;;;;;23.07;16.67;;;;;;;;;;4976347;28;20198;-55
2022/06/09 05:36:27;;;;;;;22.33;15.70;;;;;;;;;;4976480;28;20281;-55
2022/06/09 05:47:08;;;;;;;15.93;14.03;;;;;;;;;;4976346;28;20270;-55
2022/06/09 05:49:34;;;;;;;15.80;12.83;;;;;;;;;;4976119;28;20210;-55
2022/06/09 05:52:00;;;;;;;17.77;13.90;;;;;;;;;;4975845;28;20249;-55
2022/06/09 05:54:27;;;;;;;21.03;14.10;;;;;;;;;;4976306;28;20712;-55
2022/06/09 05:56:54;;;;;;;22.23;13.70;;;;;;;;;;4975974;28;20213;-55
2022/06/09 05:59:20;;;;;;;18.30;13.67;;;;;;;;;;4976355;28;20257;-55
2022/06/09 06:01:46;;;;;;;18.27;14.33;;;;;;;;;;4976061;28;20191;-55
2022/06/09 06:04:14;;;;;;;17.73;13.90;;;;;;;;;;4975878;28;20206;-55
2022/06/09 06:06:40;;;;;;;15.27;12.40;;;;;;;;;;4976122;28;20206;-55
2022/06/09 06:09:07;;;;;;;20.83;14.23;;;;;;;;;;4975476;28;20195;-55
2022/06/09 06:11:34;;;;;;;15.23;11.70;;;;;;;;;;4975557;28;20239;-56
2022/06/09 06:14:00;;;;;;;13.43;11.60;;;;;;;;;;4975733;28;20222;-55
2022/06/09 06:16:27;;;;;;;14.93;11.47;;;;;;;;;;4975499;28;20198;-55
2022/06/09 06:18:53;;;;;;;13.97;12.37;;;;;;;;;;4975757;28;20209;-54
2022/06/09 06:21:20;;;;;;;16.73;12.77;;;;;;;;;;4975341;28;20197;-54
2022/06/09 06:23:46;;;;;;;15.07;12.90;;;;;;;;;;4975247;28;20661;-55
2022/06/09 06:26:13;;;;;;;13.27;11.73;;;;;;;;;;4975301;28;20219;-55
2022/06/09 06:28:39;;;;;;;13.60;10.27;;;;;;;;;;4975157;28;20772;-55
2022/06/09 06:31:06;;;;;;;14.90;11.60;;;;;;;;;;4975063;28;20318;-55
2022/06/09 06:33:32;;;;;;;13.60;11.10;;;;;;;;;;4975410;28;20190;-56
2022/06/09 06:35:58;;;;;;;17.73;11.80;;;;;;;;;;4975286;28;20201;-54
2022/06/09 06:38:25;;;;;;;17.80;11.17;;;;;;;;;;4975537;28;20278;-54
2022/06/09 06:40:51;;;;;;;17.37;11.80;;;;;;;;;;4974616;28;20199;-54
2022/06/09 06:43:17;;;;;;;16.67;12.60;;;;;;;;;;4975126;28;20295;-54
2022/06/09 06:45:44;;;;;;;12.60;11.23;;;;;;;;;;4975327;28;20213;-54
2022/06/09 06:48:10;;;;;;;16.60;12.00;;;;;;;;;;4974935;28;20237;-54
2022/06/09 06:50:36;;;;;;;15.13;11.63;;;;;;;;;;4975441;28;20233;-56
2022/06/09 06:53:02;;;;;;;12.87;11.47;;;;;;;;;;4974994;28;20210;-53
2022/06/09 06:55:29;;;;;;;15.63;11.57;;;;;;;;;;4975014;28;20199;-54
2022/06/09 06:57:56;;;;;;;18.17;11.73;;;;;;;;;;4975102;28;20210;-54
2022/06/09 07:00:23;;;;;;;16.90;11.13;;;;;;;;;;4975046;28;20261;-54
2022/06/09 07:02:50;;;;;;;17.40;11.13;;;;;;;;;;4975089;28;20198;-54
2022/06/09 07:05:17;;;;;;;15.10;11.10;;;;;;;;;;4974871;28;20199;-55
2022/06/09 07:07:43;;;;;;;15.10;10.67;;;;;;;;;;4974735;28;20199;-54
2022/06/09 07:10:10;;;;;;;16.80;10.37;;;;;;;;;;4974711;28;20210;-54
2022/06/09 07:12:38;;;;;;;10.53;9.23;;;;;;;;;;4974541;28;20194;-54
2022/06/09 07:15:05;;;;;;;11.93;9.70;;;;;;;;;;4974386;28;20435;-54
2022/06/09 07:17:31;;;;;;;16.63;10.17;;;;;;;;;;4974258;28;20215;-54
2022/06/09 07:19:57;;;;;;;12.77;9.30;;;;;;;;;;4974418;28;20199;-54
2022/06/09 07:22:23;;;;;;;11.27;9.33;;;;;;;;;;4974489;28;20195;-54
2022/06/09 07:24:49;;;;;;;12.57;8.23;;;;;;;;;;4974376;28;20290;-55
2022/06/09 07:27:15;;;;;;;10.83;8.93;;;;;;;;;;4974276;28;20231;-54
2022/06/09 07:29:43;;;;;;;13.17;9.27;;;;;;;;;;4974393;28;20242;-54
2022/06/09 07:32:09;;;;;;;13.60;8.40;;;;;;;;;;4974279;28;20285;-54
2022/06/09 07:34:36;;;;;;;9.70;8.40;;;;;;;;;;4974224;28;20207;-54
2022/06/09 07:37:02;;;;;;;10.87;7.93;;;;;;;;;;4974237;28;20246;-54
2022/06/09 07:39:28;;;;;;;15.13;8.40;;;;;;;;;;4973995;28;20650;-54
2022/06/09 07:41:54;;;;;;;12.50;7.37;;;;;;;;;;4973790;28;20199;-54
2022/06/09 07:44:20;;;;;;;8.03;7.13;;;;;;;;;;4973643;28;20730;-54
2022/06/09 07:46:48;;;;;;;9.53;7.40;;;;;;;;;;4973877;28;20196;-54
2022/06/09 07:49:14;;;;;;;11.07;6.77;;;;;;;;;;4974067;28;20629;-54
2022/06/09 07:51:39;;;;;;;11.43;7.27;;;;;;;;;;4973680;28;20263;-54
2022/06/09 07:54:06;;;;;;;9.57;6.57;;;;;;;;;;4972947;28;20277;-54
2022/06/09 07:56:33;;;;;;;8.07;7.10;;;;;;;;;;4973968;28;20688;-54
2022/06/09 07:59:00;;;;;;;11.97;7.20;;;;;;;;;;4973770;28;20262;-54
2022/06/09 08:01:26;;;;;;;8.43;7.50;;;;;;;;;;4973961;28;20278;-54
2022/06/09 08:03:54;;;;;;;10.27;7.40;;;;;;;;;;4973718;28;20203;-55
2022/06/09 08:06:21;;;;;;;11.03;8.10;;;;;;;;;;4973353;28;20206;-55
2022/06/09 08:08:47;;;;;;;9.87;7.03;;;;;;;;;;4973739;28;20198;-54
2022/06/09 08:11:13;;;;;;;8.47;6.43;;;;;;;;;;4973270;28;20237;-54
2022/06/09 08:13:40;;;;;;;7.87;6.13;;;;;;;;;;4973403;28;20199;-54
2022/06/09 08:16:06;;;;;;;9.57;6.43;;;;;;;;;;4973348;28;20253;-55
2022/06/09 08:18:32;;;;;;;12.07;7.20;;;;;;;;;;4973389;28;20195;-54
2022/06/09 08:20:59;;;;;;;10.43;6.03;;;;;;;;;;4973509;28;20553;-55
2022/06/09 08:23:26;;;;;;;9.13;6.57;;;;;;;;;;4973286;28;20203;-54
2022/06/09 08:25:54;;;;;;;8.67;6.20;;;;;;;;;;4973158;28;20254;-55
2022/06/09 08:28:20;;;;;;;9.00;6.60;;;;;;;;;;4973207;28;20254;-54
2022/06/09 08:30:47;;;;;;;8.77;6.50;;;;;;;;;;4973269;28;20230;-54
2022/06/09 08:33:13;;;;;;;11.23;6.43;;;;;;;;;;4973208;28;20298;-55
2022/06/09 08:35:39;;;;;;;8.33;6.50;;;;;;;;;;4973424;28;20286;-55
2022/06/09 08:38:08;;;;;;;7.63;6.33;;;;;;;;;;4973003;28;20751;-55
2022/06/09 08:40:37;;;;;;;7.27;6.50;;;;;;;;;;4973202;28;20191;-54
2022/06/09 08:43:10;;;;;;;10.50;7.40;;;;;;;;;;4973139;28;20210;-54
2022/06/09 08:45:37;;;;;;;9.53;7.57;;;;;;;;;;4973254;28;20230;-54
2022/06/09 08:48:05;;;;;;;10.53;6.57;;;;;;;;;;4972909;28;20242;-54
2022/06/09 08:50:33;;;;;;;8.10;6.60;;;;;;;;;;4973065;28;20286;-54
2022/06/09 08:53:01;;;;;;;13.07;7.20;;;;;;;;;;4973004;28;20203;-52
2022/06/09 08:55:32;;;;;;;10.13;7.97;;;;;;;;;;4972752;28;20290;-55
2022/06/09 08:58:01;;;;;;;7.83;6.87;;;;;;;;;;4972654;28;20265;-54
2022/06/09 09:00:30;;;;;;;7.97;6.40;;;;;;;;;;4972572;28;20661;-54
2022/06/09 09:02:59;;;;;;;9.70;7.73;;;;;;;;;;4972877;28;20250;-54
2022/06/09 09:05:29;;;;;;;11.43;7.03;;;;;;;;;;4972384;28;20208;-52
2022/06/09 09:07:56;;;;;;;9.33;7.33;;;;;;;;;;4972749;28;20199;-52
2022/06/09 09:10:23;;;;;;;7.27;6.63;;;;;;;;;;4972457;28;20288;-55
2022/06/09 09:13:01;;;;;;;9.13;6.93;;;;;;;;;;4972784;28;20209;-53
2022/06/09 09:15:29;;;;;;;7.80;6.23;;;;;;;;;;4972439;28;20288;-55
2022/06/09 09:18:00;;;;;;;8.93;6.80;;;;;;;;;;4972309;28;20197;-52
2022/06/09 09:20:30;;;;;;;7.90;6.80;;;;;;;;;;4972400;28;20252;-53
2022/06/09 09:23:02;;;;;;;8.93;5.93;;;;;;;;;;4972277;28;20206;-54
2022/06/09 09:25:30;;;;;;;8.13;6.50;;;;;;;;;;4972039;28;20759;-54
2022/06/09 09:28:02;;;;;;;8.17;5.80;;;;;;;;;;4972239;28;20653;-54
2022/06/09 09:30:31;;;;;;;8.60;6.57;;;;;;;;;;4972439;28;20679;-54
2022/06/09 09:32:57;;;;;;;6.67;6.03;;;;;;;;;;4972561;28;20211;-54
2022/06/09 09:35:28;;;;;;;7.87;5.97;;;;;;;;;;4972254;28;20194;-55
2022/06/09 09:37:55;;;;;;;7.93;5.40;;;;;;;;;;4972538;28;20236;-54
2022/06/09 09:40:25;;;;;;;9.00;5.73;;;;;;;;;;4972410;28;20611;-54
2022/06/09 09:42:54;;;;;;;10.73;6.50;;;;;;;;;;4972575;28;20567;-54
2022/06/09 09:45:22;;;;;;;7.70;5.70;;;;;;;;;;4972379;28;20209;-54
2022/06/09 09:47:50;;;;;;;12.37;5.97;;;;;;;;;;4972200;28;20199;-54
2022/06/09 09:50:21;;;;;;;9.07;6.77;;;;;;;;;;4972375;28;20245;-54
2022/06/09 09:52:53;;;;;;;6.87;5.63;;;;;;;;;;4972517;28;20293;-55
2022/06/09 09:55:27;;;;;;;7.07;5.80;;;;;;;;;;4972487;28;20252;-53
2022/06/09 09:58:17;;;;;;;8.90;6.10;;;;;;;;;;4972361;28;20213;-55
2022/06/09 10:00:44;;;;;;;6.40;5.80;;;;;;;;;;4957669;28;20309;-55
2022/06/09 10:08:48;;;;;;;10.27;6.50;;;;;;;;;;4972297;28;20686;-56
2022/06/09 10:14:03;;;;;;;8.20;6.10;;;;;;;;;;4972451;28;20213;-54
2022/06/09 10:16:33;;;;;;;6.23;5.50;;;;;;;;;;4973303;28;20568;-54
2022/06/09 10:19:01;;;;;;;8.47;5.67;;;;;;;;;;4975462;28;20203;-54
2022/06/09 10:21:27;;;;;;;9.17;6.20;;;;;;;;;;4975658;28;20829;-54
2022/06/09 10:23:54;;;;;;;7.53;6.10;;;;;;;;;;4975675;28;20290;-54
2022/06/09 10:26:22;;;;;;;7.50;6.13;;;;;;;;;;4973740;28;20277;-54
2022/06/09 10:28:54;;;;;;;8.30;5.83;;;;;;;;;;4975586;28;20234;-54
2022/06/09 10:31:27;;;;;;;8.43;5.63;;;;;;;;;;4975491;28;20249;-54
2022/06/09 10:33:56;;;;;;;8.40;6.13;;;;;;;;;;4975571;28;20198;-54
2022/06/09 10:36:24;;;;;;;8.43;5.50;;;;;;;;;;4975321;28;20207;-55
2022/06/09 10:38:53;;;;;;;5.50;4.90;;;;;;;;;;4975405;28;20202;-54
2022/06/09 10:41:21;;;;;;;6.97;4.57;;;;;;;;;;4975189;28;20203;-55
2022/06/09 10:43:50;;;;;;;8.20;5.67;;;;;;;;;;4975435;28;20234;-55
2022/06/09 10:46:23;;;;;;;6.50;5.77;;;;;;;;;;4975226;28;20203;-54
2022/06/09 10:57:17;;;;;;;5.50;4.37;;;;;;;;;;4975131;28;20242;-54
2022/06/09 10:59:46;;;;;;;5.33;4.83;;;;;;;;;;4975173;28;20199;-55
2022/06/09 11:02:15;;;;;;;5.47;4.47;;;;;;;;;;4975099;28;20309;-55
2022/06/09 11:04:41;;;;;;;7.57;4.93;;;;;;;;;;4975022;28;20222;-55
2022/06/09 11:07:16;;;;;;;5.30;4.80;;;;;;;;;;4974784;28;20204;-55
2022/06/09 11:09:48;;;;;;;6.23;4.67;;;;;;;;;;4974904;28;20209;-55
2022/06/09 11:12:18;;;;;;;7.10;4.87;;;;;;;;;;4974646;28;20269;-55
2022/06/09 11:14:52;;;;;;;6.77;5.30;;;;;;;;;;4974228;28;20210;-55
2022/06/09 11:17:23;;;;;;;7.47;6.37;;;;;;;;;;4974514;28;21033;-55
2022/06/09 11:19:55;;;;;;;7.73;5.43;;;;;;;;;;4974628;28;20210;-55
2022/06/09 11:22:30;;;;;;;8.50;6.23;;;;;;;;;;4974535;28;20226;-56
2022/06/09 11:25:01;;;;;;;7.93;5.93;;;;;;;;;;4974386;28;20210;-55
2022/06/09 11:27:34;;;;;;;9.63;6.43;;;;;;;;;;4974292;28;20226;-55
2022/06/09 11:30:06;;;;;;;7.10;5.43;;;;;;;;;;4974062;28;20780;-55
2022/06/09 11:32:35;;;;;;;6.53;5.83;;;;;;;;;;4972709;28;20234;-56
2022/06/09 11:35:10;;;;;;;9.23;6.03;;;;;;;;;;4974067;28;20201;-55
2022/06/09 11:37:45;;;;;;;6.10;5.30;;;;;;;;;;4974416;28;20190;-55
2022/06/09 11:40:18;;;;;;;4.77;3.97;;;;;;;;;;4974378;28;20256;-56
2022/06/09 11:42:49;;;;;;;10.33;4.67;;;;;;;;;;4974418;28;20283;-56
2022/06/09 11:45:21;;;;;;;6.40;4.87;;;;;;;;;;4974219;28;20293;-56
2022/06/09 11:47:47;;;;;;;7.17;4.67;;;;;;;;;;4974241;28;20222;-56
2022/06/09 11:50:16;;;;;;;5.17;4.00;;;;;;;;;;4973753;28;20622;-56
2022/06/09 11:52:47;;;;;;;5.77;3.67;;;;;;;;;;4973762;28;20242;-55
2022/06/09 11:55:25;;;;;;;4.27;3.17;;;;;;;;;;4973997;28;20810;-55
2022/06/09 11:57:51;;;;;;;5.13;3.27;;;;;;;;;;4973753;28;20752;-56
2022/06/09 12:00:35;;;;;;;5.30;3.47;;;;;;;;;;4973917;28;20678;-56
2022/06/09 12:03:05;;;;;;;4.57;2.90;;;;;;;;;;4973694;28;20259;-54
2022/06/09 12:05:33;;;;;;;4.90;2.70;;;;;;;;;;4973670;28;20211;-55
2022/06/09 12:08:13;;;;;;;6.83;3.03;;;;;;;;;;4973831;28;20223;-55
2022/06/09 12:10:58;;;;;;;4.70;3.10;;;;;;;;;;4973538;28;20204;-55
2022/06/09 12:13:25;;;;;;;4.27;2.80;;;;;;;;;;4973106;28;20219;-56
2022/06/09 12:15:58;;;;;;;5.43;2.90;;;;;;;;;;4973387;28;20206;-55
2022/06/09 12:18:34;;;;;;;4.33;2.23;;;;;;;;;;4973612;28;20577;-56
2022/06/09 12:21:03;;;;;;;6.03;2.43;;;;;;;;;;4973371;28;20627;-55
2022/06/09 12:23:33;;;;;;;2.83;2.50;;;;;;;;;;4973305;28;20202;-55
2022/06/09 12:26:18;;;;;;;3.30;2.93;;;;;;;;;;4973502;28;20321;-55
2022/06/09 12:28:46;;;;;;;4.37;2.23;;;;;;;;;;4973149;28;20234;-55
2022/06/09 12:31:13;;;;;;;3.37;2.40;;;;;;;;;;4971563;28;20310;-54
2022/06/09 12:33:39;;;;;;;4.10;2.47;;;;;;;;;;4972183;28;20195;-55
2022/06/09 12:36:07;;;;;;;3.93;2.13;;;;;;;;;;4972234;28;20670;-56
2022/06/09 12:38:37;;;;;;;2.87;2.20;;;;;;;;;;4972537;28;20298;-56
2022/06/09 12:41:10;;;;;;;5.30;1.90;;;;;;;;;;4972892;28;20218;-56
2022/06/09 12:43:38;;;;;;;3.30;1.60;;;;;;;;;;4972816;28;20285;-56
2022/06/09 12:46:16;;;;;;;3.53;1.43;;;;;;;;;;4972280;28;20206;-55
2022/06/09 12:48:42;;;;;;;3.40;1.60;;;;;;;;;;4972988;28;20294;-55
2022/06/09 12:51:15;;;;;;;4.17;1.80;;;;;;;;;;4972737;28;20255;-55
2022/06/09 12:53:48;;;;;;;2.03;1.80;;;;;;;;;;4972975;28;20307;-55
2022/06/09 12:56:22;;;;;;;3.73;1.97;;;;;;;;;;4972571;28;20216;-55
2022/06/09 12:58:49;;;;;;;4.57;2.13;;;;;;;;;;4972819;28;20204;-55
2022/06/09 13:01:17;;;;;;;2.73;1.70;;;;;;;;;;4973013;28;20248;-55
2022/06/09 13:03:46;;;;;;;2.47;1.30;;;;;;;;;;4972740;28;20208;-55
2022/06/09 13:06:21;;;;;;;2.40;1.67;;;;;;;;;;4972715;28;20292;-55
2022/06/09 13:08:49;;;;;;;5.57;1.60;;;;;;;;;;4972642;28;20196;-54
2022/06/09 13:11:19;;;;;;;2.23;1.60;;;;;;;;;;4972215;28;20380;-54
2022/06/09 13:13:45;;;;;;;1.83;1.50;;;;;;;;;;4972424;28;20238;-55
2022/06/09 13:16:13;;;;;;;2.93;1.30;;;;;;;;;;4972958;28;20212;-56
2022/06/09 13:18:41;;;;;;;1.73;1.23;;;;;;;;;;4972466;28;20215;-56
2022/06/09 13:21:09;;;;;;;1.70;1.20;;;;;;;;;;4972492;28;20190;-56
2022/06/09 13:23:36;;;;;;;2.73;1.40;;;;;;;;;;4972642;28;20226;-56
2022/06/09 13:26:04;;;;;;;1.77;1.30;;;;;;;;;;4972374;28;20247;-55
2022/06/09 13:28:36;;;;;;;1.30;1.20;;;;;;;;;;4972112;28;20240;-55
2022/06/09 13:31:04;;;;;;;2.27;1.50;;;;;;;;;;4972463;28;20446;-55
2022/06/09 13:33:32;;;;;;;1.43;1.33;;;;;;;;;;4972508;28;20230;-56
2022/06/09 13:36:09;;;;;;;1.60;1.40;;;;;;;;;;4972376;28;20204;-55
2022/06/09 13:38:36;;;;;;;6.30;2.13;;;;;;;;;;4972235;28;20547;-55
2022/06/09 13:41:10;;;;;;;4.00;1.60;;;;;;;;;;4972524;28;20610;-55
2022/06/09 13:43:38;;;;;;;2.17;1.63;;;;;;;;;;4972293;28;20303;-55
2022/06/09 13:46:06;;;;;;;3.13;1.53;;;;;;;;;;4972286;28;20198;-55
2022/06/09 13:48:40;;;;;;;4.40;1.87;;;;;;;;;;4972525;28;20192;-55
2022/06/09 13:51:11;;;;;;;2.20;1.40;;;;;;;;;;4972903;28;20224;-58
2022/06/09 13:53:44;;;;;;;2.03;1.47;;;;;;;;;;4976073;28;20234;-55
2022/06/09 13:56:13;;;;;;;3.43;1.50;;;;;;;;;;4976148;28;20227;-55
2022/06/09 13:58:40;;;;;;;2.83;1.43;;;;;;;;;;4976060;28;20222;-55
2022/06/09 14:01:06;;;;;;;2.50;1.73;;;;;;;;;;4976134;28;20756;-55
2022/06/09 14:03:34;;;;;;;3.33;1.50;;;;;;;;;;4976075;28;20199;-55
2022/06/09 14:06:02;;;;;;;2.50;1.30;;;;;;;;;;4975891;28;20616;-55
2022/06/09 14:08:30;;;;;;;1.53;1.40;;;;;;;;;;4975980;28;20250;-55
2022/06/09 14:10:56;;;;;;;3.07;1.40;;;;;;;;;;4975833;28;20235;-55
2022/06/09 14:13:23;;;;;;;2.63;1.37;;;;;;;;;;4975599;28;20199;-55
2022/06/09 14:15:51;;;;;;;4.23;1.60;;;;;;;;;;4975559;28;20207;-55
2022/06/09 14:18:18;;;;;;;3.90;1.40;;;;;;;;;;4975829;28;20202;-55
2022/06/09 14:20:44;;;;;;;2.83;1.30;;;;;;;;;;4975612;28;20251;-55
2022/06/09 14:23:14;;;;;;;1.50;1.40;;;;;;;;;;4975718;28;20273;-56
2022/06/09 14:25:40;;;;;;;3.17;1.53;;;;;;;;;;4974368;28;20223;-55
2022/06/09 14:28:08;;;;;;;2.57;1.57;;;;;;;;;;4975419;28;20575;-56
2022/06/09 14:30:35;;;;;;;5.83;1.60;;;;;;;;;;4975475;28;20206;-56
2022/06/09 14:33:01;;;;;;;1.77;1.30;;;;;;;;;;4975667;28;20244;-56
2022/06/09 14:35:27;;;;;;;6.20;1.60;;;;;;;;;;4975017;28;20205;-54
2022/06/09 14:37:53;;;;;;;2.53;1.60;;;;;;;;;;4975385;28;20232;-54
2022/06/09 14:40:22;;;;;;;2.73;1.20;;;;;;;;;;4975497;28;20199;-54
2022/06/09 14:42:48;;;;;;;2.23;1.20;;;;;;;;;;4975204;28;20237;-54
2022/06/09 14:45:14;;;;;;;1.20;1.00;;;;;;;;;;4973917;28;20240;-55
2022/06/09 14:47:41;;;;;;;1.57;1.20;;;;;;;;;;4975247;28;20212;-55
2022/06/09 14:50:08;;;;;;;1.70;1.27;;;;;;;;;;4975054;28;20574;-55
2022/06/09 14:52:33;;;;;;;2.37;1.10;;;;;;;;;;4975158;28;20227;-54
2022/06/09 14:54:59;;;;;;;1.43;1.03;;;;;;;;;;4975229;28;20213;-54
2022/06/09 14:57:25;;;;;;;1.70;1.13;;;;;;;;;;4975099;28;20204;-54
2022/06/09 14:59:51;;;;;;;2.27;1.00;;;;;;;;;;4974981;28;20202;-54
2022/06/09 15:02:19;;;;;;;1.77;1.00;;;;;;;;;;4974521;28;20221;-54
2022/06/09 15:04:46;;;;;;;1.10;0.80;;;;;;;;;;4974991;28;20228;-54